Boise, ID (83716)

11:05 AM MDT on May 24, 2017 (GMT -0600)
Lucky Peak - Barclay Bay | | Change Station
Active Advisory: Flood Warning

Elev 3100 ft 43.52 °N, 116.05 °W | Updated 25 seconds ago

Clear
Clear
65.7 °F
Feels Like 65.7 °F
N
14.1
Wind Variable Wind from WSW
Gusts 18.0 mph

Today
High -- | Low -- °F
--% Chance of Precip.
Yesterday
High -- | Low -- °F
Precip. -- in
Pressure 29.72 in
Visibility 10.0 miles
Clouds Clear
Dew Point 36 °F
Humidity 34%
Rainfall 0.00 in
Snow Depth Not available.
6:11 AM 9:11 PM
Waning Crescent, 2% visible
METAR KBOI 241653Z 30019G24KT 10SM CLR 19/00 A2978 RMK AO2 SLP062 T01940000
Pressure 29.72 in
Visibility 10.0 miles
Clouds Clear
Dew Point 36 °F
Humidity 34%
Rainfall 0.00 in
Snow Depth Not available.
6:11 AM 9:11 PM
Waning Crescent, 2% visible
METAR KBOI 241653Z 30019G24KT 10SM CLR 19/00 A2978 RMK AO2 SLP062 T01940000

Get Your Daily Forecast Email!

Thanks for signing up!

Be on the lookout for a verification email in your inbox.

You'll start receiving severe weather alerts in your inbox..

×

10-Day Weather Forecast

Almanac

Astronomy

May. 24, 2017 Rise Set
Actual Time
Civil Twilight
Nautical Twilight
Astronomical Twilight
Moon
Length of Visible Light
Length of Day
Tomorrow will be .
, % of the Moon is Illuminated

Today's Extremes

State Highs State Lows

Community

WunderPhotos

Category 6

Welcome to Category 6. This is the collective home for Weather Underground's featured writeups by Dr. Jeff Masters (right), Bob Henson (left), Chris Burt, and other regular contributors.

Nearby

Air Quality

  Air Quality AQ Index Pollutant
Not available.

Snow Depth

Station Depth Elevation

Earthquake Activity

City Distance Mag. Time & Date
Minimum magnitude displayed is 2.5.

Coastal Water Temperatures

Place Temperature

Stations

Nearby Weather Stations

Station Location Temp. Windchill Dew Point Humidity Wind Precip. Elev Updated Type
                   

Watches & Warnings

Flood Warning
Issued: 12:31 PM MDT May. 18, 2017 – National Weather Service

The Flood Warning continues for
the Boise river at Glenwood bridge.
* Until further notice... or until the warning is cancelled.
* Minor flooding is occurring and minor flooding is forecast.
* Flood stage is 7000 cfs.
* Forecast... regulated flows are expected to remain near 8940 cfs
at Glenwood bridge with minor fluctuations possible.
* Impact... at 8900 cfs... or 11.6 feet, large sections of the green
belt will be submerged and severe bank erosion will occur. Flooding
will occur in low areas close to the river in Boise, Garden City,
Eagle and Caldwell, but the water should remain below the level of
most residential areas. Water will seep into the Garden City
warehouse district between 45th and 47th streets.


Lat... Lon 4366 11610 4353 11613 4374 11702 4386 11699